Latest Weather Observations for Charlton

IDV60801

Issued at 3:02 pm EDT Thursday 15 November 2018 (issued every 10 minutes, with the page automatically refreshed every 10 minutes)

About weather observations | Map of weather stations | Latest weather observations for VIC | Other Formats
Station Details ID: 080128 Name: CHARLTON Lat: -36.28 Lon: 143.33 Height: 131.7 m
Data from the previous 72 hours. | See also: Recent months at Charlton
Date/Time
EDT
Temp
°C
App
Temp
°C
Dew
Point
°C
Rel
Hum
%
Delta-T
°C
Wind Press
QNH
hPa
Press
MSL
hPa
Rain since
9am
mm
Dir  Spd
km/h
Gust
km/h
Spd
kts
Gust
kts
15/03:00pm 22.4 16.9 0.3 23 10.0 SSE 19 30 10 16 1021.5 1021.2 0.0
15/02:30pm 22.3 18.0 0.8 24 9.9 S 13 26 7 14 1021.8 1021.5 0.0
15/02:00pm 22.0 17.8 1.6 26 9.5 SSE 13 24 7 13 1022.1 1021.8 0.0
15/01:30pm 22.0 17.0 1.6 26 9.5 SSE 17 33 9 18 1022.3 1022.0 0.0
15/01:00pm 20.2 14.6 0.1 26 8.9 SSE 19 39 10 21 1022.3 1022.0 0.0
15/12:30pm 19.4 14.0 1.4 30 8.2 SSE 19 32 10 17 1022.7 1022.4 0.0
15/12:00pm 18.9 13.3 1.4 31 7.9 SSE 20 35 11 19 1022.9 1022.6 0.0
15/11:30am 19.2 14.4 2.6 33 7.7 SSE 17 32 9 17 1023.2 1022.9 0.0
15/11:00am 18.8 14.2 3.8 37 7.1 S 17 32 9 17 1023.0 1022.7 0.0
15/10:30am 17.4 12.8 3.7 40 6.4 S 17 28 9 15 1023.0 1022.7 0.0
15/10:00am 17.0 11.6 4.7 44 5.8 SSE 22 30 12 16 1022.9 1022.6 0.0
15/09:30am 17.0 12.1 5.0 45 5.8 SSE 20 28 11 15 1023.0 1022.7 0.0
15/09:00am 16.4 11.9 6.2 51 5.0 SSE 19 30 10 16 1022.9 1022.6 0.2
15/08:30am 14.7 8.4 5.8 55 4.3 SSE 28 35 15 19 1022.7 1022.4 0.2
15/08:00am 13.7 9.7 6.8 63 3.3 SSE 17 28 9 15 1022.2 1021.9 0.2
15/07:30am 12.8 10.3 8.1 73 2.3 S 11 24 6 13 1021.8 1021.5 0.2
15/07:00am 11.0 8.8 7.9 81 1.5 S 9 13 5 7 1021.5 1021.2 0.2
15/06:30am 10.0 8.1 7.4 84 1.2 S 7 11 4 6 1021.0 1020.6 0.2
15/06:00am 10.1 7.4 7.3 83 1.3 SSE 11 17 6 9 1020.6 1020.2 0.2
15/05:30am 10.9 7.5 7.6 80 1.6 SSE 15 24 8 13 1020.1 1019.7 0.2
15/05:00am 11.1 7.7 7.8 80 1.6 SSE 15 24 8 13 1020.0 1019.6 0.2
15/04:30am 10.4 8.7 8.2 86 1.1 S 7 11 4 6 1019.9 1019.5 0.2
15/04:00am 11.0 9.4 8.8 86 1.1 S 7 17 4 9 1019.6 1019.2 0.2
15/03:30am 11.4 9.9 8.4 82 1.5 S 6 11 3 6 1019.4 1019.0 0.2
15/03:00am 12.2 10.3 8.9 80 1.7 SW 9 13 5 7 1019.1 1018.7 0.2
15/02:30am 12.3 10.3 8.6 78 1.9 SSW 9 13 5 7 1019.0 1018.6 0.2
15/02:00am 12.9 11.3 8.6 75 2.2 S 7 11 4 6 1019.2 1018.8 0.2
15/01:30am 13.7 11.8 9.0 73 2.4 SSE 9 13 5 7 1019.2 1018.8 0.2
15/01:00am 14.0 10.9 9.0 72 2.5 SSE 15 20 8 11 1019.2 1018.8 0.2
15/12:30am 14.8 12.7 9.6 71 2.7 SSE 11 20 6 11 1019.1 1018.7 0.2
15/12:00am 15.3 13.2 9.7 69 2.9 S 11 19 6 10 1018.9 1018.5 0.2
 
Date/Time
EDT
Temp
°C
App
Temp
°C
Dew
Point
°C
Rel
Hum
%
Delta-T
°C
Wind Press
QNH
hPa
Press
MSL
hPa
Rain since
9am
mm
Dir  Spd
km/h
Gust
km/h
Spd
kts
Gust
kts
14/11:30pm 15.8 14.0 9.5 66 3.3 SSE 9 19 5 10 1018.8 1018.4 0.2
14/11:00pm 16.2 14.2 7.2 55 4.5 SW 7 11 4 6 1018.2 1017.9 0.2
14/10:30pm 16.9 15.1 7.0 52 4.9 SSW 6 11 3 6 1018.1 1017.8 0.2
14/10:00pm 18.0 15.6 7.1 49 5.5 SSW 9 15 5 8 1017.7 1017.4 0.2
14/09:30pm 18.8 16.5 7.6 48 5.7 SW 9 17 5 9 1017.3 1017.0 0.2
14/09:00pm 18.9 16.7 8.0 49 5.6 SW 9 15 5 8 1017.0 1016.7 0.2
14/08:30pm 19.8 16.5 7.9 46 6.2 WSW 15 22 8 12 1016.6 1016.3 0.2
14/08:00pm 20.7 17.0 8.0 44 6.6 WSW 17 24 9 13 1016.0 1015.7 0.2
14/07:30pm 22.3 18.4 7.3 38 7.8 WSW 17 30 9 16 1015.3 1015.0 0.2
14/07:00pm 23.4 19.0 6.7 34 8.7 WSW 19 26 10 14 1014.8 1014.4 0.2
14/06:30pm 24.6 20.7 7.3 33 9.1 SW 17 28 9 15 1014.5 1014.1 0.2
14/06:00pm 24.8 19.9 7.0 32 9.4 WSW 22 35 12 19 1014.3 1013.9 0.2
14/05:30pm 26.0 21.8 7.6 31 9.8 WSW 19 32 10 17 1014.0 1013.6 0.2
14/05:00pm 26.2 21.9 7.7 31 9.9 WSW 20 35 11 19 1013.8 1013.4 0.2
14/04:30pm 26.5 22.3 7.5 30 10.2 W 19 30 10 16 1013.7 1013.3 0.2
14/04:00pm 27.1 23.4 8.0 30 10.3 W 17 41 9 22 1013.5 1013.1 0.2
14/03:30pm 27.0 23.0 8.4 31 10.1 W 19 32 10 17 1013.6 1013.2 0.2
14/03:00pm 26.8 23.3 8.7 32 9.9 W 17 26 9 14 1013.7 1013.3 0.2
14/02:30pm 26.9 24.2 10.2 35 9.4 W 15 26 8 14 1013.7 1013.3 0.2
14/02:00pm 25.2 22.7 11.0 41 8.0 WNW 15 26 8 14 1014.1 1013.7 0.2
14/01:30pm 24.5 22.2 11.8 45 7.2 W 15 24 8 13 1014.2 1013.8 0.2
14/01:00pm 23.1 20.5 12.1 50 6.3 W 17 30 9 16 1014.4 1014.0 0.2
14/12:30pm 22.4 20.3 12.4 53 5.7 W 15 28 8 15 1014.8 1014.4 0.2
14/12:00pm 23.0 20.8 13.2 54 5.7 W 17 24 9 13 1014.8 1014.4 0.0
14/11:30am 22.2 20.1 13.5 57 5.1 W 17 26 9 14 1014.9 1014.6 0.0
14/11:00am 21.4 20.1 13.8 62 4.4 WNW 13 20 7 11 1014.8 1014.4 0.0
14/10:30am 20.7 19.9 15.0 70 3.4 W 13 20 7 11 1015.0 1014.7 0.0
14/10:00am 18.8 18.6 14.7 77 2.4 WSW 9 17 5 9 1015.0 1014.7 0.0
14/09:30am 17.8 17.4 15.2 85 1.5 W 11 17 6 9 1014.8 1014.4 0.0
14/09:00am 16.9 16.7 15.6 92 0.8 WSW 11 17 6 9 1014.6 1014.2 0.4
14/08:30am 16.0 15.7 15.5 97 0.3 WSW 11 17 6 9 1014.5 1014.1 0.4
14/08:00am 15.9 15.3 15.6 98 0.2 W 13 19 7 10 1014.2 1013.8 0.4
14/07:30am 15.8 16.0 15.8 100 0.0 WSW 9 17 5 9 1013.9 1013.5 0.4
14/07:00am 15.9 16.2 15.9 100 0.0 WSW 9 15 5 8 1013.5 1013.1 0.4
14/06:30am 16.3 17.0 16.1 99 0.1 W 7 11 4 6 1013.3 1012.9 0.4
14/06:00am 16.6 16.9 16.1 97 0.3 WNW 9 13 5 7 1012.7 1012.3 0.4
14/05:30am 16.8 17.5 16.2 96 0.4 WNW 7 11 4 6 1012.4 1012.0 0.4
14/05:00am 17.4 18.2 17.2 99 0.1 NNW 9 13 5 7 1012.2 1011.8 0.4
14/04:30am 17.5 18.7 17.3 99 0.1 NNW 7 13 4 7 1012.1 1011.7 0.4
14/04:00am 17.6 18.4 17.4 99 0.1 N 9 15 5 8 1012.0 1011.6 0.4
14/03:30am 17.5 17.9 17.2 98 0.2 NNW 11 15 6 8 1011.9 1011.5 0.4
14/03:00am 17.8 18.1 17.0 95 0.5 NNW 11 19 6 10 1012.0 1011.6 0.4
14/02:30am 18.1 18.4 17.1 94 0.6 N 11 17 6 9 1012.2 1011.8 0.4
14/02:00am 18.1 18.4 17.0 93 0.7 N 11 15 6 8 1012.6 1012.2 0.4
14/01:30am 18.2 18.3 16.5 90 1.0 N 11 17 6 9 1012.9 1012.5 0.4
14/01:00am 18.2 18.5 16.0 87 1.3 NNE 9 13 5 7 1013.0 1012.6 0.4
14/12:30am 18.1 17.8 15.5 85 1.5 NNE 11 17 6 9 1012.9 1012.5 0.4
14/12:00am 18.1 18.1 15.2 83 1.7 N 9 13 5 7 1013.1 1012.7 0.4
 
Date/Time
EDT
Temp
°C
App
Temp
°C
Dew
Point
°C
Rel
Hum
%
Delta-T
°C
Wind Press
QNH
hPa
Press
MSL
hPa
Rain since
9am
mm
Dir  Spd
km/h
Gust
km/h
Spd
kts
Gust
kts
13/11:30pm 18.2 18.5 14.9 81 1.9 NNE 7 13 4 7 1012.6 1012.2 0.4
13/11:00pm 18.3 18.3 15.2 82 1.8 NE 9 13 5 7 1012.5 1012.1 0.4
13/10:30pm 18.2 18.2 15.1 82 1.8 ENE 9 11 5 6 1012.7 1012.3 0.4
13/10:00pm 18.6 18.8 14.7 78 2.3 N 7 11 4 6 1012.9 1012.5 0.0
13/09:30pm 20.0 19.0 13.5 66 3.7 NW 11 19 6 10 1012.8 1012.4 0.0
13/09:00pm 22.0 19.2 11.4 51 5.9 WNW 17 28 9 15 1012.0 1011.6 0.0
13/08:30pm 23.2 20.6 10.6 45 7.0 WNW 15 24 8 13 1011.2 1010.8 0.0
13/08:00pm 24.0 21.4 10.7 43 7.4 W 15 26 8 14 1010.6 1010.2 0.0
13/07:30pm 25.0 20.7 9.3 37 8.6 WSW 22 35 12 19 1009.8 1009.5 0.0
13/07:00pm 26.3 21.6 7.8 31 10.0 W 22 37 12 20 1009.0 1008.7 0.0
13/06:30pm 27.8 21.9 6.0 25 11.5 WSW 26 41 14 22 1008.1 1007.7 0.0
13/06:00pm 29.6 26.1 3.6 19 13.3 WSW 11 19 6 10 1007.4 1007.0 0.0
13/05:30pm 30.5 26.5 2.7 17 14.0 WSW 13 20 7 11 1007.0 1006.6 0.0
13/05:00pm 31.7 27.7 2.8 16 14.8 W 13 20 7 11 1006.9 1006.5 0.0
13/04:30pm 31.8 26.9 2.0 15 15.0 W 17 28 9 15 1007.1 1006.7 0.0
13/04:00pm 31.3 26.3 1.6 15 14.8 WNW 17 26 9 14 1007.2 1006.8 0.0
13/03:30pm 31.8 26.7 1.0 14 15.2 W 17 30 9 16 1007.3 1006.9 0.0
13/03:00pm 32.4 27.3 0.5 13 15.7 NW 17 28 9 15 1007.4 1007.0 0.0
13/02:30pm 32.4 26.7 -0.6 12 15.9 N 19 35 10 19 1007.6 1007.2 0.0
13/02:00pm 35.0 29.4 0.2 11 17.4 NNW 19 30 10 16 1007.5 1007.1 0.0
13/01:30pm 33.5 28.4 3.3 15 15.7 NNE 19 33 10 18 1008.0 1007.6 0.0
13/01:00pm 32.3 28.2 4.2 17 14.7 NNE 15 28 8 15 1008.5 1008.2 0.0
13/12:30pm 30.4 25.5 4.2 19 13.6 NE 19 30 10 16 1009.0 1008.7 0.0
13/12:00pm 29.7 25.2 4.4 20 13.1 NNE 17 24 9 13 1009.4 1009.1 0.0
13/11:30am 27.9 23.9 4.9 23 11.9 NE 15 26 8 14 1009.8 1009.5 0.0
13/11:00am 26.7 22.4 5.1 25 11.1 NNE 17 28 9 15 1009.9 1009.6 0.0
13/10:30am 25.7 21.3 4.8 26 10.6 NE 17 28 9 15 1009.7 1009.4 0.0
13/10:00am 25.3 21.6 4.4 26 10.5 NE 13 17 7 9 1010.0 1009.7 0.0
13/09:30am 24.1 20.3 4.0 27 10.0 NE 13 17 7 9 1010.3 1010.0 0.0
13/09:00am 22.5 18.9 3.1 28 9.4 ENE 11 19 6 10 1010.1 1009.8 0.0
13/08:30am 21.5 18.2 2.7 29 8.9 E 9 13 5 7 1010.5 1010.1 0.0
13/08:00am 20.9 18.6 2.7 30 8.6 SSE 4 13 2 7 1010.6 1010.2 0.0
13/07:30am 21.4 19.0 2.2 28 9.0 N 4 9 2 5 1010.8 1010.4 0.0
13/07:00am 21.7 18.7 1.9 27 9.3 NW 7 17 4 9 1010.5 1010.1 0.0
13/06:30am 21.6 19.1 1.8 27 9.2 ESE 4 7 2 4 1009.8 1009.5 0.0
13/06:00am 22.4 18.5 1.4 25 9.8 NNE 11 19 6 10 1009.8 1009.5 0.0
13/05:30am 22.2 17.6 1.3 25 9.7 NE 15 19 8 10 1009.4 1009.1 0.0
13/05:00am 22.2 17.9 1.3 25 9.7 ENE 13 20 7 11 1009.4 1009.1 0.0
13/04:30am 22.7 18.0 1.1 24 10.0 NE 15 22 8 12 1010.2 1009.9 0.0
13/04:00am 23.1 18.8 0.9 23 10.3 NE 13 19 7 10 1010.0 1009.7 0.0
13/03:30am 23.2 18.8 0.3 22 10.5 NE 13 19 7 10 1009.7 1009.4 0.0
13/03:00am 22.1 18.0 0.0 23 10.0 ENE 11 15 6 8 1009.8 1009.5 0.0
13/02:30am 22.5 18.3 -0.9 21 10.4 ENE 11 17 6 9 1010.2 1009.9 0.0
13/02:00am 22.8 18.6 -0.6 21 10.5 ENE 11 19 6 10 1010.7 1010.3 0.0
13/01:30am 21.9 18.0 -1.4 21 10.2 NE 9 13 5 7 1011.2 1010.8 0.0
13/01:00am 22.6 18.7 -1.5 20 10.6 NE 9 13 5 7 1011.5 1011.1 0.0
13/12:30am 22.8 19.2 -2.0 19 10.9 NE 7 9 4 5 1012.0 1011.6 0.0
13/12:00am 23.4 19.4 -2.2 18 11.2 NE 9 13 5 7 1012.2 1011.8 0.0
 
Date/Time
EDT
Temp
°C
App
Temp
°C
Dew
Point
°C
Rel
Hum
%
Delta-T
°C
Wind Press
QNH
hPa
Press
MSL
hPa
Rain since
9am
mm
Dir  Spd
km/h
Gust
km/h
Spd
kts
Gust
kts
12/11:30pm 23.2 19.2 -2.4 18 11.2 NE 9 13 5 7 1012.3 1011.9 0.0
12/11:00pm 22.3 18.5 -1.1 21 10.4 NNE 9 11 5 6 1012.8 1012.4 0.0
12/10:30pm 20.9 17.8 0.2 25 9.3 NE 6 7 3 4 1013.0 1012.6 0.0
12/10:00pm 20.5 17.1 -0.7 24 9.3 NE 7 7 4 4 1013.0 1012.6 0.0
12/09:30pm 22.5 18.7 -0.9 21 10.4 NE 9 9 5 5 1013.0 1012.6 0.0
12/09:00pm 22.9 19.6 -1.2 20 10.7 NE 6 9 3 5 1012.9 1012.5 0.0
12/08:30pm 25.1 21.8 -1.6 17 12.0 NNE 6 7 3 4 1012.9 1012.5 0.0
12/08:00pm 27.4 23.8 -2.4 14 13.5 NNE 7 11 4 6 1012.9 1012.5 0.0
12/07:30pm 29.2 25.0 -4.3 11 14.8 NNE 9 13 5 7 1012.9 1012.5 0.0
12/07:00pm 29.9 24.8 -5.0 10 15.4 N 13 26 7 14 1012.9 1012.5 0.0
12/06:30pm 30.9 25.1 -4.2 10 15.8 N 17 24 9 13 1012.8 1012.4 0.0
12/06:00pm 30.3 25.0 -3.4 11 15.3 N 15 20 8 11 1013.0 1012.6 0.0
12/05:30pm 30.7 25.3 -4.4 10 15.7 N 15 26 8 14 1013.1 1012.7 0.0
12/05:00pm 30.9 25.1 -4.2 10 15.8 NNE 17 24 9 13 1013.2 1012.8 0.0
12/04:30pm 31.5 26.9 -3.8 10 16.1 NNE 11 19 6 10 1013.5 1013.1 0.0
12/04:00pm 31.2 26.2 -4.0 10 15.9 NNE 13 28 7 15 1013.8 1013.4 0.0
12/03:30pm 31.2 26.2 -4.0 10 15.9 NNE 13 30 7 16 1014.1 1013.7 0.0

Other Formats:

Comma delimited format used in spreadsheet applications
http://www.bom.gov.au/fwo/IDV60801/IDV60801.94839.axf

JavaScript Object Notation format (JSON) in row-major order
http://www.bom.gov.au/fwo/IDV60801/IDV60801.94839.json